sensor_id;sensor_type;location;lat;lon;timestamp;pressure;altitude;pressure_sealevel;temperature;humidity
13027;BME280;6580;42.680;23.324;2023-07-31T00:01:38;94881.78;;;23.65;100.00
13027;BME280;6580;42.680;23.324;2023-07-31T00:04:27;94881.94;;;23.75;100.00
13027;BME280;6580;42.680;23.324;2023-07-31T00:07:15;94881.94;;;23.75;98.48
13027;BME280;6580;42.680;23.324;2023-07-31T00:10:03;94893.59;;;23.87;97.22
13027;BME280;6580;42.680;23.324;2023-07-31T00:12:51;94882.72;;;23.87;96.59
13027;BME280;6580;42.680;23.324;2023-07-31T00:15:36;94891.97;;;23.59;99.49
13027;BME280;6580;42.680;23.324;2023-07-31T00:18:22;94894.50;;;23.49;100.00
13027;BME280;6580;42.680;23.324;2023-07-31T00:21:11;94877.31;;;23.60;100.00
13027;BME280;6580;42.680;23.324;2023-07-31T00:23:56;94883.59;;;23.76;99.78
13027;BME280;6580;42.680;23.324;2023-07-31T00:26:42;94875.50;;;23.65;100.00
13027;BME280;6580;42.680;23.324;2023-07-31T00:29:30;94886.50;;;23.42;100.00
13027;BME280;6580;42.680;23.324;2023-07-31T00:32:16;94867.19;;;23.27;100.00
13027;BME280;6580;42.680;23.324;2023-07-31T00:35:03;94866.34;;;23.38;100.00
13027;BME280;6580;42.680;23.324;2023-07-31T00:37:51;94855.81;;;23.14;100.00
13027;BME280;6580;42.680;23.324;2023-07-31T00:40:38;94852.81;;;23.27;100.00
13027;BME280;6580;42.680;23.324;2023-07-31T00:43:24;94860.97;;;23.27;100.00
13027;BME280;6580;42.680;23.324;2023-07-31T00:46:12;94866.09;;;23.40;100.00
13027;BME280;6580;42.680;23.324;2023-07-31T00:48:59;94863.91;;;23.25;100.00
13027;BME280;6580;42.680;23.324;2023-07-31T00:51:44;94861.78;;;23.27;100.00
13027;BME280;6580;42.680;23.324;2023-07-31T00:54:31;94859.03;;;22.99;100.00
13027;BME280;6580;42.680;23.324;2023-07-31T00:57:16;94866.66;;;23.14;100.00
13027;BME280;6580;42.680;23.324;2023-07-31T01:00:04;94858.78;;;23.01;100.00
13027;BME280;6580;42.680;23.324;2023-07-31T01:03:01;94854.56;;;22.93;100.00
13027;BME280;6580;42.680;23.324;2023-07-31T01:05:53;94854.88;;;23.08;100.00
13027;BME280;6580;42.680;23.324;2023-07-31T01:08:51;94854.41;;;23.00;100.00
13027;BME280;6580;42.680;23.324;2023-07-31T01:11:46;94850.28;;;23.09;100.00
13027;BME280;6580;42.680;23.324;2023-07-31T01:14:36;94855.31;;;22.89;100.00
13027;BME280;6580;42.680;23.324;2023-07-31T01:17:25;94848.88;;;22.67;100.00
13027;BME280;6580;42.680;23.324;2023-07-31T01:20:22;94840.69;;;22.78;100.00
13027;BME280;6580;42.680;23.324;2023-07-31T01:23:44;94848.31;;;22.93;100.00
13027;BME280;6580;42.680;23.324;2023-07-31T01:26:46;94841.19;;;22.64;100.00
13027;BME280;6580;42.680;23.324;2023-07-31T01:29:37;94843.56;;;22.72;100.00
13027;BME280;6580;42.680;23.324;2023-07-31T01:32:24;94836.38;;;22.66;100.00
13027;BME280;6580;42.680;23.324;2023-07-31T01:35:13;94837.34;;;22.88;100.00
13027;BME280;6580;42.680;23.324;2023-07-31T01:37:58;94838.34;;;22.70;100.00
13027;BME280;6580;42.680;23.324;2023-07-31T01:40:44;94841.31;;;22.69;100.00
13027;BME280;6580;42.680;23.324;2023-07-31T01:43:33;94828.84;;;22.57;100.00
13027;BME280;6580;42.680;23.324;2023-07-31T01:46:20;94841.34;;;22.58;100.00
13027;BME280;6580;42.680;23.324;2023-07-31T01:49:06;94833.28;;;22.74;100.00
13027;BME280;6580;42.680;23.324;2023-07-31T01:51:52;94834.28;;;22.84;100.00
13027;BME280;6580;42.680;23.324;2023-07-31T01:54:38;94834.38;;;22.61;100.00
13027;BME280;6580;42.680;23.324;2023-07-31T01:57:23;94849.59;;;22.62;100.00
13027;BME280;6580;42.680;23.324;2023-07-31T02:00:11;94851.38;;;22.57;100.00
13027;BME280;6580;42.680;23.324;2023-07-31T02:03:05;94845.72;;;22.58;100.00
13027;BME280;6580;42.680;23.324;2023-07-31T02:05:51;94848.44;;;22.58;100.00
13027;BME280;6580;42.680;23.324;2023-07-31T02:08:37;94850.72;;;22.39;100.00
13027;BME280;6580;42.680;23.324;2023-07-31T02:11:25;94856.59;;;22.36;100.00
13027;BME280;6580;42.680;23.324;2023-07-31T02:14:10;94856.88;;;22.34;100.00
13027;BME280;6580;42.680;23.324;2023-07-31T02:17:04;94858.50;;;22.35;100.00
13027;BME280;6580;42.680;23.324;2023-07-31T02:19:49;94849.31;;;22.13;100.00
13027;BME280;6580;42.680;23.324;2023-07-31T02:22:35;94857.66;;;22.23;100.00
13027;BME280;6580;42.680;23.324;2023-07-31T02:25:22;94858.59;;;22.40;100.00
13027;BME280;6580;42.680;23.324;2023-07-31T02:28:08;94857.53;;;22.53;100.00
13027;BME280;6580;42.680;23.324;2023-07-31T02:30:53;94861.56;;;22.50;100.00
13027;BME280;6580;42.680;23.324;2023-07-31T02:33:40;94854.78;;;22.64;100.00
13027;BME280;6580;42.680;23.324;2023-07-31T02:36:26;94856.69;;;22.63;100.00
13027;BME280;6580;42.680;23.324;2023-07-31T02:39:12;94849.81;;;22.61;100.00
13027;BME280;6580;42.680;23.324;2023-07-31T02:41:59;94848.84;;;22.78;100.00
13027;BME280;6580;42.680;23.324;2023-07-31T02:44:47;94850.53;;;22.68;100.00
13027;BME280;6580;42.680;23.324;2023-07-31T02:47:38;94860.50;;;22.51;100.00
13027;BME280;6580;42.680;23.324;2023-07-31T02:50:26;94873.69;;;22.48;100.00
13027;BME280;6580;42.680;23.324;2023-07-31T02:53:13;94873.44;;;22.60;100.00
13027;BME280;6580;42.680;23.324;2023-07-31T02:56:00;94872.72;;;22.65;100.00
13027;BME280;6580;42.680;23.324;2023-07-31T02:58:47;94863.84;;;22.69;100.00
13027;BME280;6580;42.680;23.324;2023-07-31T03:01:33;94873.44;;;22.72;100.00
13027;BME280;6580;42.680;23.324;2023-07-31T03:04:19;94880.84;;;22.76;100.00
13027;BME280;6580;42.680;23.324;2023-07-31T03:07:06;94876.50;;;22.64;100.00
13027;BME280;6580;42.680;23.324;2023-07-31T03:09:52;94889.72;;;22.72;100.00
13027;BME280;6580;42.680;23.324;2023-07-31T03:12:37;94882.59;;;22.82;100.00
13027;BME280;6580;42.680;23.324;2023-07-31T03:15:23;94894.59;;;22.98;100.00
13027;BME280;6580;42.680;23.324;2023-07-31T03:18:08;94890.00;;;22.98;100.00
13027;BME280;6580;42.680;23.324;2023-07-31T03:20:55;94895.66;;;23.08;100.00
13027;BME280;6580;42.680;23.324;2023-07-31T03:23:42;94884.56;;;22.98;100.00
13027;BME280;6580;42.680;23.324;2023-07-31T03:26:28;94888.47;;;22.91;100.00
13027;BME280;6580;42.680;23.324;2023-07-31T03:29:21;94888.97;;;22.88;100.00
13027;BME280;6580;42.680;23.324;2023-07-31T03:32:08;94895.16;;;23.00;100.00
13027;BME280;6580;42.680;23.324;2023-07-31T03:34:53;94895.13;;;22.83;100.00
13027;BME280;6580;42.680;23.324;2023-07-31T03:37:42;94892.88;;;22.80;100.00
13027;BME280;6580;42.680;23.324;2023-07-31T03:40:30;94899.22;;;22.86;100.00
13027;BME280;6580;42.680;23.324;2023-07-31T03:43:16;94904.41;;;22.87;100.00
13027;BME280;6580;42.680;23.324;2023-07-31T03:46:02;94887.41;;;22.92;100.00
13027;BME280;6580;42.680;23.324;2023-07-31T03:48:48;94909.34;;;23.02;100.00
13027;BME280;6580;42.680;23.324;2023-07-31T03:51:34;94914.91;;;23.07;100.00
13027;BME280;6580;42.680;23.324;2023-07-31T03:54:25;94909.66;;;23.05;100.00
13027;BME280;6580;42.680;23.324;2023-07-31T03:57:15;94911.72;;;23.10;100.00
13027;BME280;6580;42.680;23.324;2023-07-31T04:00:10;94917.25;;;23.03;100.00
13027;BME280;6580;42.680;23.324;2023-07-31T04:02:58;94915.00;;;23.12;100.00
13027;BME280;6580;42.680;23.324;2023-07-31T04:05:55;94920.69;;;23.10;100.00
13027;BME280;6580;42.680;23.324;2023-07-31T04:08:41;94917.19;;;23.26;100.00
13027;BME280;6580;42.680;23.324;2023-07-31T04:11:28;94926.41;;;23.25;100.00
13027;BME280;6580;42.680;23.324;2023-07-31T04:14:17;94919.28;;;23.08;100.00
13027;BME280;6580;42.680;23.324;2023-07-31T04:17:05;94909.38;;;22.90;100.00
13027;BME280;6580;42.680;23.324;2023-07-31T04:19:51;94927.88;;;23.05;100.00
13027;BME280;6580;42.680;23.324;2023-07-31T04:22:36;94922.59;;;23.10;100.00
13027;BME280;6580;42.680;23.324;2023-07-31T04:25:23;94923.84;;;23.19;100.00
13027;BME280;6580;42.680;23.324;2023-07-31T04:28:09;94923.97;;;23.40;100.00
13027;BME280;6580;42.680;23.324;2023-07-31T04:30:57;94924.09;;;23.06;100.00
13027;BME280;6580;42.680;23.324;2023-07-31T04:33:58;94923.84;;;23.19;100.00
13027;BME280;6580;42.680;23.324;2023-07-31T04:36:48;94935.47;;;23.31;100.00
13027;BME280;6580;42.680;23.324;2023-07-31T04:39:41;94933.47;;;23.38;100.00
13027;BME280;6580;42.680;23.324;2023-07-31T04:42:29;94929.38;;;23.52;100.00
13027;BME280;6580;42.680;23.324;2023-07-31T04:45:16;94907.28;;;23.20;100.00
13027;BME280;6580;42.680;23.324;2023-07-31T04:48:04;94926.47;;;23.42;100.00
13027;BME280;6580;42.680;23.324;2023-07-31T04:50:50;94925.47;;;23.48;100.00
13027;BME280;6580;42.680;23.324;2023-07-31T04:53:36;94920.13;;;23.53;100.00
13027;BME280;6580;42.680;23.324;2023-07-31T04:56:22;94930.97;;;23.92;100.00
13027;BME280;6580;42.680;23.324;2023-07-31T04:59:11;94927.41;;;24.24;100.00
13027;BME280;6580;42.680;23.324;2023-07-31T05:01:57;94928.81;;;24.27;100.00
13027;BME280;6580;42.680;23.324;2023-07-31T05:04:47;94922.59;;;24.48;100.00
13027;BME280;6580;42.680;23.324;2023-07-31T05:07:34;94918.59;;;24.50;100.00
13027;BME280;6580;42.680;23.324;2023-07-31T05:10:19;94924.63;;;24.95;100.00
13027;BME280;6580;42.680;23.324;2023-07-31T05:13:07;94922.19;;;24.93;100.00
13027;BME280;6580;42.680;23.324;2023-07-31T05:15:52;94914.59;;;24.95;98.70
13027;BME280;6580;42.680;23.324;2023-07-31T05:18:39;94915.78;;;25.73;93.19
13027;BME280;6580;42.680;23.324;2023-07-31T05:21:30;94916.88;;;25.99;91.04
13027;BME280;6580;42.680;23.324;2023-07-31T05:24:16;94902.00;;;25.59;91.09
13027;BME280;6580;42.680;23.324;2023-07-31T05:27:02;94905.59;;;25.90;91.11
13027;BME280;6580;42.680;23.324;2023-07-31T05:29:48;94907.53;;;26.58;86.48
13027;BME280;6580;42.680;23.324;2023-07-31T05:32:35;94911.53;;;27.43;77.75
13027;BME280;6580;42.680;23.324;2023-07-31T05:35:22;94911.44;;;28.24;72.63
13027;BME280;6580;42.680;23.324;2023-07-31T05:38:11;94903.97;;;28.94;68.19
13027;BME280;6580;42.680;23.324;2023-07-31T05:41:14;94904.13;;;29.37;64.58
13027;BME280;6580;42.680;23.324;2023-07-31T05:44:02;94897.97;;;29.65;62.85
13027;BME280;6580;42.680;23.324;2023-07-31T05:46:50;94894.31;;;29.80;60.80
13027;BME280;6580;42.680;23.324;2023-07-31T05:49:35;94896.38;;;28.26;63.17
13027;BME280;6580;42.680;23.324;2023-07-31T05:52:22;94904.56;;;28.11;65.58
13027;BME280;6580;42.680;23.324;2023-07-31T05:55:11;94904.59;;;27.15;70.06
13027;BME280;6580;42.680;23.324;2023-07-31T05:57:59;94908.13;;;26.65;73.36
13027;BME280;6580;42.680;23.324;2023-07-31T06:00:45;94913.13;;;26.78;72.93
13027;BME280;6580;42.680;23.324;2023-07-31T06:03:31;94916.44;;;25.80;78.13
13027;BME280;6580;42.680;23.324;2023-07-31T06:06:19;94927.19;;;25.71;79.99
13027;BME280;6580;42.680;23.324;2023-07-31T06:09:04;94930.41;;;26.15;74.64
13027;BME280;6580;42.680;23.324;2023-07-31T06:11:54;94927.03;;;27.17;68.14
13027;BME280;6580;42.680;23.324;2023-07-31T06:14:40;94914.75;;;26.37;70.07
13027;BME280;6580;42.680;23.324;2023-07-31T06:17:26;94932.91;;;27.56;64.85
13027;BME280;6580;42.680;23.324;2023-07-31T06:20:12;94924.88;;;28.20;62.33
13027;BME280;6580;42.680;23.324;2023-07-31T06:22:57;94919.63;;;29.67;56.00
13027;BME280;6580;42.680;23.324;2023-07-31T06:25:44;94923.78;;;30.12;53.36
13027;BME280;6580;42.680;23.324;2023-07-31T06:28:32;94912.34;;;29.96;51.77
13027;BME280;6580;42.680;23.324;2023-07-31T06:31:18;94916.47;;;30.98;48.75
13027;BME280;6580;42.680;23.324;2023-07-31T06:34:07;94925.09;;;29.77;51.97
13027;BME280;6580;42.680;23.324;2023-07-31T06:36:53;94920.69;;;29.81;52.56
13027;BME280;6580;42.680;23.324;2023-07-31T06:39:39;94919.06;;;29.70;52.48
13027;BME280;6580;42.680;23.324;2023-07-31T06:42:24;94915.41;;;31.46;47.67
13027;BME280;6580;42.680;23.324;2023-07-31T06:45:20;94907.84;;;30.48;50.13
13027;BME280;6580;42.680;23.324;2023-07-31T06:48:06;94918.00;;;31.79;47.07
13027;BME280;6580;42.680;23.324;2023-07-31T06:50:52;94917.63;;;31.86;45.64
13027;BME280;6580;42.680;23.324;2023-07-31T06:53:38;94917.91;;;31.42;46.21
13027;BME280;6580;42.680;23.324;2023-07-31T06:56:24;94924.81;;;30.60;48.81
13027;BME280;6580;42.680;23.324;2023-07-31T06:59:10;94921.50;;;29.81;50.87
13027;BME280;6580;42.680;23.324;2023-07-31T07:01:57;94929.56;;;30.83;46.88
13027;BME280;6580;42.680;23.324;2023-07-31T07:04:43;94919.41;;;30.78;47.27
13027;BME280;6580;42.680;23.324;2023-07-31T07:07:31;94901.22;;;30.82;46.29
13027;BME280;6580;42.680;23.324;2023-07-31T07:10:17;94908.59;;;31.15;45.81
13027;BME280;6580;42.680;23.324;2023-07-31T07:13:05;94915.84;;;29.58;48.59
13027;BME280;6580;42.680;23.324;2023-07-31T07:15:54;94924.75;;;29.20;50.57
13027;BME280;6580;42.680;23.324;2023-07-31T07:18:41;94923.69;;;29.16;52.26
13027;BME280;6580;42.680;23.324;2023-07-31T07:21:26;94920.19;;;28.81;52.29
13027;BME280;6580;42.680;23.324;2023-07-31T07:24:12;94912.53;;;29.66;49.95
13027;BME280;6580;42.680;23.324;2023-07-31T07:26:57;94914.09;;;30.58;46.45
13027;BME280;6580;42.680;23.324;2023-07-31T07:29:43;94923.13;;;31.67;44.53
13027;BME280;6580;42.680;23.324;2023-07-31T07:32:28;94907.75;;;30.91;46.00
13027;BME280;6580;42.680;23.324;2023-07-31T07:35:16;94898.88;;;32.93;41.28
13027;BME280;6580;42.680;23.324;2023-07-31T07:38:02;94892.28;;;30.95;45.62
13027;BME280;6580;42.680;23.324;2023-07-31T07:40:47;94912.66;;;31.69;44.21
13027;BME280;6580;42.680;23.324;2023-07-31T07:43:34;94916.97;;;32.49;41.30
13027;BME280;6580;42.680;23.324;2023-07-31T07:46:22;94913.88;;;32.37;42.49
13027;BME280;6580;42.680;23.324;2023-07-31T07:49:11;94905.69;;;32.82;41.15
13027;BME280;6580;42.680;23.324;2023-07-31T07:51:58;94920.13;;;33.51;39.07
13027;BME280;6580;42.680;23.324;2023-07-31T07:54:45;94915.72;;;32.92;39.85
13027;BME280;6580;42.680;23.324;2023-07-31T07:57:31;94913.06;;;33.00;39.54
13027;BME280;6580;42.680;23.324;2023-07-31T08:00:19;94916.06;;;35.34;34.25
13027;BME280;6580;42.680;23.324;2023-07-31T08:03:06;94935.13;;;32.87;37.93
13027;BME280;6580;42.680;23.324;2023-07-31T08:05:51;94922.56;;;31.47;41.40
13027;BME280;6580;42.680;23.324;2023-07-31T08:08:39;94919.38;;;32.00;41.40
13027;BME280;6580;42.680;23.324;2023-07-31T08:11:25;94921.34;;;32.36;41.29
13027;BME280;6580;42.680;23.324;2023-07-31T08:14:11;94922.88;;;32.42;39.74
13027;BME280;6580;42.680;23.324;2023-07-31T08:16:57;94921.19;;;30.64;43.49
13027;BME280;6580;42.680;23.324;2023-07-31T08:19:42;94916.03;;;28.98;47.11
13027;BME280;6580;42.680;23.324;2023-07-31T08:22:28;94932.81;;;28.92;48.78
13027;BME280;6580;42.680;23.324;2023-07-31T08:25:15;94928.09;;;30.23;45.08
13027;BME280;6580;42.680;23.324;2023-07-31T08:28:00;94922.16;;;30.78;43.63
13027;BME280;6580;42.680;23.324;2023-07-31T08:30:47;94917.56;;;31.72;41.57
13027;BME280;6580;42.680;23.324;2023-07-31T08:33:34;94924.72;;;32.97;39.17
13027;BME280;6580;42.680;23.324;2023-07-31T08:36:20;94908.75;;;35.08;35.04
13027;BME280;6580;42.680;23.324;2023-07-31T08:39:05;94916.72;;;36.43;32.92
13027;BME280;6580;42.680;23.324;2023-07-31T08:41:57;94905.19;;;36.58;32.15
13027;BME280;6580;42.680;23.324;2023-07-31T08:44:44;94905.47;;;36.39;31.82
13027;BME280;6580;42.680;23.324;2023-07-31T08:47:30;94899.91;;;36.81;31.38
13027;BME280;6580;42.680;23.324;2023-07-31T08:50:17;94899.31;;;33.94;34.88
13027;BME280;6580;42.680;23.324;2023-07-31T08:53:03;94897.66;;;34.86;34.07
13027;BME280;6580;42.680;23.324;2023-07-31T08:55:52;94905.34;;;32.52;37.61
13027;BME280;6580;42.680;23.324;2023-07-31T08:58:48;94896.16;;;35.32;33.70
13027;BME280;6580;42.680;23.324;2023-07-31T09:01:43;94904.38;;;36.49;31.58
13027;BME280;6580;42.680;23.324;2023-07-31T09:04:33;94892.41;;;37.53;30.37
13027;BME280;6580;42.680;23.324;2023-07-31T09:07:19;94903.69;;;36.94;30.47
13027;BME280;6580;42.680;23.324;2023-07-31T09:10:07;94900.31;;;37.88;29.15
13027;BME280;6580;42.680;23.324;2023-07-31T09:12:54;94866.81;;;38.05;28.64
13027;BME280;6580;42.680;23.324;2023-07-31T09:15:44;94884.88;;;39.01;27.02
13027;BME280;6580;42.680;23.324;2023-07-31T09:18:31;94893.53;;;37.61;28.07
13027;BME280;6580;42.680;23.324;2023-07-31T09:21:16;94896.09;;;35.15;31.72
13027;BME280;6580;42.680;23.324;2023-07-31T09:24:05;94879.09;;;33.45;34.51
13027;BME280;6580;42.680;23.324;2023-07-31T09:26:53;94877.28;;;35.81;31.75
13027;BME280;6580;42.680;23.324;2023-07-31T09:29:42;94876.59;;;34.33;33.30
13027;BME280;6580;42.680;23.324;2023-07-31T09:32:31;94886.69;;;32.94;35.50
13027;BME280;6580;42.680;23.324;2023-07-31T09:35:19;94872.00;;;33.79;34.33
13027;BME280;6580;42.680;23.324;2023-07-31T09:38:06;94872.03;;;35.54;31.70
13027;BME280;6580;42.680;23.324;2023-07-31T09:40:58;94868.13;;;35.55;31.67
13027;BME280;6580;42.680;23.324;2023-07-31T09:43:53;94876.25;;;32.78;35.51
13027;BME280;6580;42.680;23.324;2023-07-31T09:46:41;94880.22;;;31.85;37.84
13027;BME280;6580;42.680;23.324;2023-07-31T09:49:29;94859.38;;;35.40;32.21
13027;BME280;6580;42.680;23.324;2023-07-31T09:52:14;94856.97;;;37.42;29.23
13027;BME280;6580;42.680;23.324;2023-07-31T09:55:00;94849.84;;;37.24;29.43
13027;BME280;6580;42.680;23.324;2023-07-31T09:57:49;94850.22;;;35.95;30.52
13027;BME280;6580;42.680;23.324;2023-07-31T10:00:36;94862.25;;;36.47;30.11
13027;BME280;6580;42.680;23.324;2023-07-31T10:03:22;94852.56;;;38.07;28.01
13027;BME280;6580;42.680;23.324;2023-07-31T10:06:10;94850.63;;;38.28;27.34
13027;BME280;6580;42.680;23.324;2023-07-31T10:08:57;94850.00;;;37.27;29.12
13027;BME280;6580;42.680;23.324;2023-07-31T10:11:46;94861.22;;;36.68;28.95
13027;BME280;6580;42.680;23.324;2023-07-31T10:14:36;94845.63;;;37.92;28.12
13027;BME280;6580;42.680;23.324;2023-07-31T10:17:24;94854.75;;;38.63;26.96
13027;BME280;6580;42.680;23.324;2023-07-31T10:20:14;94856.25;;;33.39;32.87
13027;BME280;6580;42.680;23.324;2023-07-31T10:23:03;94842.88;;;33.73;32.67
13027;BME280;6580;42.680;23.324;2023-07-31T10:25:50;94831.16;;;36.70;29.52
13027;BME280;6580;42.680;23.324;2023-07-31T10:28:37;94842.47;;;34.81;31.40
13027;BME280;6580;42.680;23.324;2023-07-31T10:31:24;94842.28;;;36.02;28.81
13027;BME280;6580;42.680;23.324;2023-07-31T10:34:10;94845.06;;;36.11;29.54
13027;BME280;6580;42.680;23.324;2023-07-31T10:37:21;94842.38;;;37.16;28.09
13027;BME280;6580;42.680;23.324;2023-07-31T10:40:10;94837.22;;;36.72;28.91
13027;BME280;6580;42.680;23.324;2023-07-31T10:42:56;94834.34;;;37.89;26.73
13027;BME280;6580;42.680;23.324;2023-07-31T10:45:43;94828.06;;;36.80;27.23
13027;BME280;6580;42.680;23.324;2023-07-31T10:48:34;94839.03;;;36.26;28.55
13027;BME280;6580;42.680;23.324;2023-07-31T10:51:20;94826.19;;;34.36;30.84
13027;BME280;6580;42.680;23.324;2023-07-31T10:54:10;94831.66;;;35.40;29.71
13027;BME280;6580;42.680;23.324;2023-07-31T10:56:58;94816.59;;;37.73;27.02
13027;BME280;6580;42.680;23.324;2023-07-31T10:59:45;94821.22;;;38.59;26.28
13027;BME280;6580;42.680;23.324;2023-07-31T11:02:33;94811.28;;;38.09;25.78
13027;BME280;6580;42.680;23.324;2023-07-31T11:05:18;94817.19;;;35.43;29.15
13027;BME280;6580;42.680;23.324;2023-07-31T11:08:10;94806.22;;;36.19;27.39
13027;BME280;6580;42.680;23.324;2023-07-31T11:11:05;94808.59;;;36.88;27.08
13027;BME280;6580;42.680;23.324;2023-07-31T11:13:53;94804.91;;;36.00;27.16
13027;BME280;6580;42.680;23.324;2023-07-31T11:16:41;94803.13;;;37.17;26.63
13027;BME280;6580;42.680;23.324;2023-07-31T11:19:27;94789.56;;;35.85;28.05
13027;BME280;6580;42.680;23.324;2023-07-31T11:22:13;94808.03;;;36.07;27.84
13027;BME280;6580;42.680;23.324;2023-07-31T11:24:59;94810.31;;;36.56;27.96
13027;BME280;6580;42.680;23.324;2023-07-31T11:27:45;94807.19;;;37.28;26.67
13027;BME280;6580;42.680;23.324;2023-07-31T11:30:33;94806.16;;;38.40;25.14
13027;BME280;6580;42.680;23.324;2023-07-31T11:33:20;94802.16;;;38.81;24.53
13027;BME280;6580;42.680;23.324;2023-07-31T11:36:06;94800.75;;;37.36;26.29
13027;BME280;6580;42.680;23.324;2023-07-31T11:39:04;94816.38;;;33.45;30.25
13027;BME280;6580;42.680;23.324;2023-07-31T11:41:50;94800.94;;;35.11;29.01
13027;BME280;6580;42.680;23.324;2023-07-31T11:44:39;94806.28;;;34.77;30.27
13027;BME280;6580;42.680;23.324;2023-07-31T11:47:34;94803.53;;;34.86;30.72
13027;BME280;6580;42.680;23.324;2023-07-31T11:50:21;94796.56;;;35.57;29.80
13027;BME280;6580;42.680;23.324;2023-07-31T11:53:09;94794.00;;;36.03;29.23
13027;BME280;6580;42.680;23.324;2023-07-31T11:56:03;94781.97;;;36.96;26.57
13027;BME280;6580;42.680;23.324;2023-07-31T11:58:51;94793.22;;;33.55;31.10
13027;BME280;6580;42.680;23.324;2023-07-31T12:01:39;94800.31;;;35.87;28.09
13027;BME280;6580;42.680;23.324;2023-07-31T12:04:26;94791.13;;;33.87;30.17
13027;BME280;6580;42.680;23.324;2023-07-31T12:07:15;94790.50;;;32.88;32.29
13027;BME280;6580;42.680;23.324;2023-07-31T12:10:04;94785.41;;;32.49;33.30
13027;BME280;6580;42.680;23.324;2023-07-31T12:12:59;94775.84;;;34.25;31.31
13027;BME280;6580;42.680;23.324;2023-07-31T12:15:47;94778.88;;;35.45;29.74
13027;BME280;6580;42.680;23.324;2023-07-31T12:18:37;94756.56;;;36.68;28.47
13027;BME280;6580;42.680;23.324;2023-07-31T12:21:27;94775.84;;;35.16;29.25
13027;BME280;6580;42.680;23.324;2023-07-31T12:24:12;94771.16;;;36.15;28.68
13027;BME280;6580;42.680;23.324;2023-07-31T12:26:59;94737.47;;;35.40;29.99
13027;BME280;6580;42.680;23.324;2023-07-31T12:29:46;94767.94;;;34.62;30.55
13027;BME280;6580;42.680;23.324;2023-07-31T12:32:31;94772.69;;;33.47;32.09
13027;BME280;6580;42.680;23.324;2023-07-31T12:35:17;94779.78;;;34.11;31.12
13027;BME280;6580;42.680;23.324;2023-07-31T12:38:13;94772.69;;;32.21;33.12
13027;BME280;6580;42.680;23.324;2023-07-31T12:41:00;94774.16;;;32.91;32.38
13027;BME280;6580;42.680;23.324;2023-07-31T12:43:45;94767.69;;;33.36;31.53
13027;BME280;6580;42.680;23.324;2023-07-31T12:46:31;94771.00;;;33.73;31.07
13027;BME280;6580;42.680;23.324;2023-07-31T12:49:16;94760.06;;;33.55;30.96
13027;BME280;6580;42.680;23.324;2023-07-31T12:52:04;94762.91;;;33.28;32.02
13027;BME280;6580;42.680;23.324;2023-07-31T12:54:53;94760.09;;;32.47;32.93
13027;BME280;6580;42.680;23.324;2023-07-31T12:57:39;94758.09;;;33.20;32.13
13027;BME280;6580;42.680;23.324;2023-07-31T13:00:26;94754.81;;;34.46;30.84
13027;BME280;6580;42.680;23.324;2023-07-31T13:03:12;94749.38;;;34.11;30.72
13027;BME280;6580;42.680;23.324;2023-07-31T13:06:03;94736.56;;;34.15;30.67
13027;BME280;6580;42.680;23.324;2023-07-31T13:08:50;94721.91;;;33.92;31.46
13027;BME280;6580;42.680;23.324;2023-07-31T13:11:37;94744.72;;;33.14;32.22
13027;BME280;6580;42.680;23.324;2023-07-31T13:14:24;94761.94;;;31.88;34.17
13027;BME280;6580;42.680;23.324;2023-07-31T13:17:10;94729.22;;;32.19;33.62
13027;BME280;6580;42.680;23.324;2023-07-31T13:19:55;94759.22;;;32.20;33.32
13027;BME280;6580;42.680;23.324;2023-07-31T13:22:40;94752.31;;;31.86;34.32
13027;BME280;6580;42.680;23.324;2023-07-31T13:25:26;94749.63;;;32.18;33.81
13027;BME280;6580;42.680;23.324;2023-07-31T13:28:13;94745.66;;;32.05;33.96
13027;BME280;6580;42.680;23.324;2023-07-31T13:31:07;94755.72;;;31.64;33.55
13027;BME280;6580;42.680;23.324;2023-07-31T13:33:56;94767.59;;;31.97;33.33
13027;BME280;6580;42.680;23.324;2023-07-31T13:36:42;94757.09;;;31.99;32.97
13027;BME280;6580;42.680;23.324;2023-07-31T13:39:28;94756.63;;;31.92;33.59
13027;BME280;6580;42.680;23.324;2023-07-31T13:42:14;94762.75;;;31.52;33.57
13027;BME280;6580;42.680;23.324;2023-07-31T13:45:01;94766.09;;;31.49;33.91
13027;BME280;6580;42.680;23.324;2023-07-31T13:47:48;94760.69;;;31.02;34.77
13027;BME280;6580;42.680;23.324;2023-07-31T13:50:33;94760.38;;;30.62;35.29
13027;BME280;6580;42.680;23.324;2023-07-31T13:53:19;94755.38;;;30.87;34.80
13027;BME280;6580;42.680;23.324;2023-07-31T13:56:06;94769.66;;;31.31;34.37
13027;BME280;6580;42.680;23.324;2023-07-31T13:58:51;94764.50;;;31.66;33.95
13027;BME280;6580;42.680;23.324;2023-07-31T14:01:38;94746.59;;;31.82;33.34
13027;BME280;6580;42.680;23.324;2023-07-31T14:04:24;94755.84;;;31.36;33.76
13027;BME280;6580;42.680;23.324;2023-07-31T14:07:10;94760.66;;;31.25;34.45
13027;BME280;6580;42.680;23.324;2023-07-31T14:09:55;94750.13;;;31.32;34.55
13027;BME280;6580;42.680;23.324;2023-07-31T14:12:42;94748.75;;;31.12;35.12
13027;BME280;6580;42.680;23.324;2023-07-31T14:15:27;94750.97;;;32.02;33.56
13027;BME280;6580;42.680;23.324;2023-07-31T14:18:14;94747.44;;;31.04;35.23
13027;BME280;6580;42.680;23.324;2023-07-31T14:21:00;94747.53;;;30.76;36.38
13027;BME280;6580;42.680;23.324;2023-07-31T14:23:46;94750.91;;;31.14;36.03
13027;BME280;6580;42.680;23.324;2023-07-31T14:26:31;94742.25;;;31.03;35.95
13027;BME280;6580;42.680;23.324;2023-07-31T14:29:17;94746.00;;;30.88;36.73
13027;BME280;6580;42.680;23.324;2023-07-31T14:32:03;94751.44;;;31.35;36.56
13027;BME280;6580;42.680;23.324;2023-07-31T14:34:50;94738.91;;;30.35;37.70
13027;BME280;6580;42.680;23.324;2023-07-31T14:37:39;94743.00;;;30.38;37.95
13027;BME280;6580;42.680;23.324;2023-07-31T14:40:27;94747.00;;;30.50;38.86
13027;BME280;6580;42.680;23.324;2023-07-31T14:43:14;94748.13;;;29.88;40.11
13027;BME280;6580;42.680;23.324;2023-07-31T14:46:01;94752.63;;;29.40;41.28